sensor_id;sensor_type;location;lat;lon;timestamp;P1;durP1;ratioP1;P2;durP2;ratioP2
8171;SDS011;4127;47.908;10.850;2022-08-23T09:27:31;2.80;;;2.30;;
8171;SDS011;4127;47.908;10.850;2022-08-23T09:29:59;2.63;;;2.43;;
8171;SDS011;4127;47.908;10.850;2022-08-23T09:35:05;5.27;;;2.60;;
8171;SDS011;4127;47.908;10.850;2022-08-23T09:37:44;2.57;;;2.30;;
8171;SDS011;4127;47.908;10.850;2022-08-23T09:40:19;4.17;;;2.27;;
8171;SDS011;4127;47.908;10.850;2022-08-23T09:48:14;4.20;;;2.20;;
8171;SDS011;4127;47.908;10.850;2022-08-23T09:51:16;2.33;;;2.13;;
8171;SDS011;4127;47.908;10.850;2022-08-23T09:54:00;2.03;;;1.90;;
8171;SDS011;4127;47.908;10.850;2022-08-23T09:56:33;2.75;;;2.30;;
8171;SDS011;4127;47.908;10.850;2022-08-23T10:01:56;2.20;;;2.00;;
8171;SDS011;4127;47.908;10.850;2022-08-23T10:09:55;2.53;;;1.77;;
8171;SDS011;4127;47.908;10.850;2022-08-23T10:12:44;3.85;;;2.08;;
8171;SDS011;4127;47.908;10.850;2022-08-23T10:15:12;2.67;;;2.25;;
8171;SDS011;4127;47.908;10.850;2022-08-23T10:17:52;4.33;;;2.03;;
8171;SDS011;4127;47.908;10.850;2022-08-23T10:20:38;2.50;;;2.30;;
8171;SDS011;4127;47.908;10.850;2022-08-23T10:25:58;2.50;;;1.85;;
8171;SDS011;4127;47.908;10.850;2022-08-23T10:40:26;1.80;;;1.70;;
8171;SDS011;4127;47.908;10.850;2022-08-23T10:43:04;1.88;;;1.70;;
8171;SDS011;4127;47.908;10.850;2022-08-23T10:45:57;3.42;;;1.90;;
8171;SDS011;4127;47.908;10.850;2022-08-23T10:48:37;3.10;;;1.70;;
8171;SDS011;4127;47.908;10.850;2022-08-23T10:51:20;2.65;;;1.83;;
8171;SDS011;4127;47.908;10.850;2022-08-23T10:54:00;2.38;;;1.92;;
8171;SDS011;4127;47.908;10.850;2022-08-23T10:56:33;2.35;;;1.90;;
8171;SDS011;4127;47.908;10.850;2022-08-23T10:59:02;2.55;;;2.00;;
8171;SDS011;4127;47.908;10.850;2022-08-23T11:01:52;2.50;;;2.30;;
8171;SDS011;4127;47.908;10.850;2022-08-23T11:07:28;2.45;;;1.92;;
8171;SDS011;4127;47.908;10.850;2022-08-23T11:10:06;1.75;;;1.65;;
8171;SDS011;4127;47.908;10.850;2022-08-23T11:13:17;2.20;;;1.90;;
8171;SDS011;4127;47.908;10.850;2022-08-23T11:15:57;3.15;;;1.80;;
8171;SDS011;4127;47.908;10.850;2022-08-23T11:18:40;1.98;;;1.60;;
8171;SDS011;4127;47.908;10.850;2022-08-23T11:21:11;3.03;;;1.55;;
8171;SDS011;4127;47.908;10.850;2022-08-23T11:31:40;2.08;;;1.85;;
8171;SDS011;4127;47.908;10.850;2022-08-23T11:45:52;2.05;;;1.90;;
8171;SDS011;4127;47.908;10.850;2022-08-23T11:51:01;1.70;;;1.60;;
8171;SDS011;4127;47.908;10.850;2022-08-23T12:01:38;4.07;;;2.17;;
8171;SDS011;4127;47.908;10.850;2022-08-23T12:04:11;2.00;;;1.90;;
8171;SDS011;4127;47.908;10.850;2022-08-23T12:07:04;1.92;;;1.80;;
8171;SDS011;4127;47.908;10.850;2022-08-23T12:12:24;2.05;;;1.85;;
8171;SDS011;4127;47.908;10.850;2022-08-23T12:14:55;2.45;;;2.00;;
8171;SDS011;4127;47.908;10.850;2022-08-23T12:23:00;2.13;;;1.85;;
8171;SDS011;4127;47.908;10.850;2022-08-23T12:25:33;1.80;;;1.70;;
8171;SDS011;4127;47.908;10.850;2022-08-23T12:28:05;2.85;;;1.92;;
8171;SDS011;4127;47.908;10.850;2022-08-23T12:30:55;2.15;;;1.95;;
8171;SDS011;4127;47.908;10.850;2022-08-23T12:34:02;2.30;;;1.83;;
8171;SDS011;4127;47.908;10.850;2022-08-23T12:44:29;2.95;;;1.70;;
8171;SDS011;4127;47.908;10.850;2022-08-23T12:47:07;3.25;;;1.95;;
8171;SDS011;4127;47.908;10.850;2022-08-23T12:49:41;4.50;;;2.38;;
8171;SDS011;4127;47.908;10.850;2022-08-23T12:52:22;2.58;;;1.90;;
8171;SDS011;4127;47.908;10.850;2022-08-23T12:54:50;2.65;;;1.40;;
8171;SDS011;4127;47.908;10.850;2022-08-23T12:57:20;1.90;;;1.73;;
8171;SDS011;4127;47.908;10.850;2022-08-23T13:00:21;2.00;;;1.70;;
8171;SDS011;4127;47.908;10.850;2022-08-23T13:02:56;1.90;;;1.80;;
8171;SDS011;4127;47.908;10.850;2022-08-23T13:08:05;3.58;;;2.05;;
8171;SDS011;4127;47.908;10.850;2022-08-23T13:10:35;1.70;;;1.60;;
8171;SDS011;4127;47.908;10.850;2022-08-23T13:13:04;2.25;;;1.90;;
8171;SDS011;4127;47.908;10.850;2022-08-23T13:15:55;1.92;;;1.65;;
8171;SDS011;4127;47.908;10.850;2022-08-23T13:29:59;2.20;;;1.73;;
8171;SDS011;4127;47.908;10.850;2022-08-23T13:37:55;3.17;;;1.70;;
8171;SDS011;4127;47.908;10.850;2022-08-23T13:40:41;2.70;;;1.85;;
8171;SDS011;4127;47.908;10.850;2022-08-23T13:43:24;2.22;;;1.60;;
8171;SDS011;4127;47.908;10.850;2022-08-23T13:49:12;2.58;;;1.80;;
8171;SDS011;4127;47.908;10.850;2022-08-23T13:51:45;2.83;;;1.70;;
8171;SDS011;4127;47.908;10.850;2022-08-23T13:54:48;2.20;;;1.90;;
8171;SDS011;4127;47.908;10.850;2022-08-23T13:57:18;2.20;;;2.00;;
8171;SDS011;4127;47.908;10.850;2022-08-23T13:59:47;2.53;;;1.73;;
8171;SDS011;4127;47.908;10.850;2022-08-23T14:02:15;2.85;;;1.80;;
8171;SDS011;4127;47.908;10.850;2022-08-23T14:04:43;2.10;;;1.52;;
8171;SDS011;4127;47.908;10.850;2022-08-23T14:07:11;2.17;;;2.00;;
8171;SDS011;4127;47.908;10.850;2022-08-23T14:09:38;1.85;;;1.70;;
8171;SDS011;4127;47.908;10.850;2022-08-23T14:12:27;2.53;;;1.70;;
8171;SDS011;4127;47.908;10.850;2022-08-23T14:14:55;2.85;;;1.65;;
8171;SDS011;4127;47.908;10.850;2022-08-23T14:17:23;1.77;;;1.42;;
8171;SDS011;4127;47.908;10.850;2022-08-23T14:19:51;1.90;;;1.65;;
8171;SDS011;4127;47.908;10.850;2022-08-23T14:22:38;2.22;;;1.90;;
8171;SDS011;4127;47.908;10.850;2022-08-23T14:25:05;1.70;;;1.60;;
8171;SDS011;4127;47.908;10.850;2022-08-23T14:27:33;1.70;;;1.60;;
8171;SDS011;4127;47.908;10.850;2022-08-23T14:30:00;3.35;;;1.73;;
8171;SDS011;4127;47.908;10.850;2022-08-23T14:32:30;4.28;;;3.35;;
8171;SDS011;4127;47.908;10.850;2022-08-23T14:34:58;2.35;;;2.15;;
8171;SDS011;4127;47.908;10.850;2022-08-23T14:37:25;2.95;;;1.67;;
8171;SDS011;4127;47.908;10.850;2022-08-23T14:40:12;2.20;;;1.85;;
8171;SDS011;4127;47.908;10.850;2022-08-23T14:42:40;1.67;;;1.35;;
8171;SDS011;4127;47.908;10.850;2022-08-23T14:45:08;2.42;;;1.70;;
8171;SDS011;4127;47.908;10.850;2022-08-23T14:47:35;2.65;;;1.75;;
8171;SDS011;4127;47.908;10.850;2022-08-23T14:50:06;2.08;;;1.88;;
8171;SDS011;4127;47.908;10.850;2022-08-23T14:52:35;1.77;;;1.67;;
8171;SDS011;4127;47.908;10.850;2022-08-23T14:55:03;2.03;;;1.75;;
8171;SDS011;4127;47.908;10.850;2022-08-23T14:57:30;1.88;;;1.75;;
8171;SDS011;4127;47.908;10.850;2022-08-23T14:59:57;3.50;;;2.75;;
8171;SDS011;4127;47.908;10.850;2022-08-23T15:02:25;2.10;;;1.70;;
8171;SDS011;4127;47.908;10.850;2022-08-23T15:04:53;2.13;;;1.80;;
8171;SDS011;4127;47.908;10.850;2022-08-23T15:07:21;3.05;;;2.15;;
8171;SDS011;4127;47.908;10.850;2022-08-23T15:09:49;2.13;;;1.70;;
8171;SDS011;4127;47.908;10.850;2022-08-23T15:12:19;2.33;;;1.90;;
8171;SDS011;4127;47.908;10.850;2022-08-23T15:15:09;2.10;;;1.65;;
8171;SDS011;4127;47.908;10.850;2022-08-23T15:17:44;1.70;;;1.60;;
8171;SDS011;4127;47.908;10.850;2022-08-23T15:20:18;3.05;;;1.92;;
8171;SDS011;4127;47.908;10.850;2022-08-23T15:22:46;2.35;;;1.80;;
8171;SDS011;4127;47.908;10.850;2022-08-23T15:25:21;1.63;;;1.52;;
8171;SDS011;4127;47.908;10.850;2022-08-23T15:27:50;2.33;;;1.90;;
8171;SDS011;4127;47.908;10.850;2022-08-23T15:30:18;1.70;;;1.60;;
8171;SDS011;4127;47.908;10.850;2022-08-23T15:32:44;2.15;;;1.75;;
8171;SDS011;4127;47.908;10.850;2022-08-23T15:35:38;2.90;;;1.80;;
8171;SDS011;4127;47.908;10.850;2022-08-23T15:38:09;2.22;;;1.75;;
8171;SDS011;4127;47.908;10.850;2022-08-23T15:40:37;2.10;;;1.80;;
8171;SDS011;4127;47.908;10.850;2022-08-23T15:43:05;3.25;;;2.20;;
8171;SDS011;4127;47.908;10.850;2022-08-23T15:45:32;1.90;;;1.67;;
8171;SDS011;4127;47.908;10.850;2022-08-23T15:48:00;2.05;;;1.80;;
8171;SDS011;4127;47.908;10.850;2022-08-23T15:50:31;2.25;;;1.83;;
8171;SDS011;4127;47.908;10.850;2022-08-23T15:52:59;1.67;;;1.55;;
8171;SDS011;4127;47.908;10.850;2022-08-23T15:55:30;2.00;;;1.80;;
8171;SDS011;4127;47.908;10.850;2022-08-23T15:57:58;3.17;;;1.92;;
8171;SDS011;4127;47.908;10.850;2022-08-23T16:00:25;2.22;;;2.03;;
8171;SDS011;4127;47.908;10.850;2022-08-23T16:02:53;4.15;;;2.00;;
8171;SDS011;4127;47.908;10.850;2022-08-23T16:05:41;2.20;;;2.00;;
8171;SDS011;4127;47.908;10.850;2022-08-23T16:08:12;2.28;;;1.90;;
8171;SDS011;4127;47.908;10.850;2022-08-23T16:10:47;2.60;;;2.40;;
8171;SDS011;4127;47.908;10.850;2022-08-23T16:13:14;3.42;;;2.20;;
8171;SDS011;4127;47.908;10.850;2022-08-23T16:15:41;2.50;;;1.75;;
8171;SDS011;4127;47.908;10.850;2022-08-23T16:18:08;2.42;;;1.83;;
8171;SDS011;4127;47.908;10.850;2022-08-23T16:20:35;2.72;;;2.00;;
8171;SDS011;4127;47.908;10.850;2022-08-23T16:23:02;4.68;;;2.35;;
8171;SDS011;4127;47.908;10.850;2022-08-23T16:25:29;2.13;;;1.90;;
8171;SDS011;4127;47.908;10.850;2022-08-23T16:27:56;2.08;;;1.83;;
8171;SDS011;4127;47.908;10.850;2022-08-23T16:30:23;1.90;;;1.80;;
8171;SDS011;4127;47.908;10.850;2022-08-23T16:32:50;3.83;;;2.10;;
8171;SDS011;4127;47.908;10.850;2022-08-23T16:35:17;2.17;;;1.90;;
8171;SDS011;4127;47.908;10.850;2022-08-23T16:37:44;3.28;;;1.90;;
8171;SDS011;4127;47.908;10.850;2022-08-23T16:40:11;2.70;;;1.80;;
8171;SDS011;4127;47.908;10.850;2022-08-23T16:42:38;1.90;;;1.50;;
8171;SDS011;4127;47.908;10.850;2022-08-23T16:45:05;3.00;;;1.80;;
8171;SDS011;4127;47.908;10.850;2022-08-23T16:47:39;2.72;;;2.10;;
8171;SDS011;4127;47.908;10.850;2022-08-23T16:50:10;4.50;;;2.17;;
8171;SDS011;4127;47.908;10.850;2022-08-23T16:52:38;2.15;;;1.95;;
8171;SDS011;4127;47.908;10.850;2022-08-23T16:55:06;2.95;;;2.20;;
8171;SDS011;4127;47.908;10.850;2022-08-23T16:57:35;2.67;;;2.17;;
8171;SDS011;4127;47.908;10.850;2022-08-23T17:00:03;2.03;;;1.85;;
8171;SDS011;4127;47.908;10.850;2022-08-23T17:02:34;2.80;;;1.85;;
8171;SDS011;4127;47.908;10.850;2022-08-23T17:05:03;3.00;;;1.80;;
8171;SDS011;4127;47.908;10.850;2022-08-23T17:07:32;2.17;;;1.90;;
8171;SDS011;4127;47.908;10.850;2022-08-23T17:09:59;3.80;;;2.03;;
8171;SDS011;4127;47.908;10.850;2022-08-23T17:12:26;2.88;;;2.13;;
8171;SDS011;4127;47.908;10.850;2022-08-23T17:14:54;2.60;;;1.90;;
8171;SDS011;4127;47.908;10.850;2022-08-23T17:17:22;1.80;;;1.70;;
8171;SDS011;4127;47.908;10.850;2022-08-23T17:19:49;1.92;;;1.70;;
8171;SDS011;4127;47.908;10.850;2022-08-23T17:22:16;2.75;;;2.00;;
8171;SDS011;4127;47.908;10.850;2022-08-23T17:24:43;2.20;;;2.00;;
8171;SDS011;4127;47.908;10.850;2022-08-23T17:27:10;2.75;;;2.25;;
8171;SDS011;4127;47.908;10.850;2022-08-23T17:29:44;2.05;;;1.83;;
8171;SDS011;4127;47.908;10.850;2022-08-23T17:32:11;1.83;;;1.73;;
8171;SDS011;4127;47.908;10.850;2022-08-23T17:34:38;1.95;;;1.70;;
8171;SDS011;4127;47.908;10.850;2022-08-23T17:37:12;4.35;;;1.92;;
8171;SDS011;4127;47.908;10.850;2022-08-23T17:39:44;4.60;;;2.05;;
8171;SDS011;4127;47.908;10.850;2022-08-23T17:42:12;2.70;;;1.98;;
8171;SDS011;4127;47.908;10.850;2022-08-23T17:44:39;1.70;;;1.60;;
8171;SDS011;4127;47.908;10.850;2022-08-23T17:47:07;2.20;;;2.00;;
8171;SDS011;4127;47.908;10.850;2022-08-23T17:49:41;2.03;;;1.88;;
8171;SDS011;4127;47.908;10.850;2022-08-23T17:52:09;2.78;;;2.28;;
8171;SDS011;4127;47.908;10.850;2022-08-23T17:54:37;2.53;;;2.25;;
8171;SDS011;4127;47.908;10.850;2022-08-23T17:57:06;2.35;;;2.15;;
8171;SDS011;4127;47.908;10.850;2022-08-23T17:59:35;2.25;;;2.00;;
8171;SDS011;4127;47.908;10.850;2022-08-23T18:02:02;2.45;;;2.00;;
8171;SDS011;4127;47.908;10.850;2022-08-23T18:04:29;3.97;;;2.13;;
8171;SDS011;4127;47.908;10.850;2022-08-23T18:06:56;2.38;;;2.17;;
8171;SDS011;4127;47.908;10.850;2022-08-23T18:09:24;2.67;;;2.42;;
8171;SDS011;4127;47.908;10.850;2022-08-23T18:11:51;2.22;;;2.00;;
8171;SDS011;4127;47.908;10.850;2022-08-23T18:14:18;2.90;;;2.10;;
8171;SDS011;4127;47.908;10.850;2022-08-23T18:16:45;2.50;;;2.23;;
8171;SDS011;4127;47.908;10.850;2022-08-23T18:19:12;2.40;;;2.20;;
8171;SDS011;4127;47.908;10.850;2022-08-23T18:21:39;2.60;;;2.40;;
8171;SDS011;4127;47.908;10.850;2022-08-23T18:24:06;5.10;;;2.50;;
8171;SDS011;4127;47.908;10.850;2022-08-23T18:26:34;4.43;;;2.30;;
8171;SDS011;4127;47.908;10.850;2022-08-23T18:29:21;2.40;;;2.20;;
8171;SDS011;4127;47.908;10.850;2022-08-23T18:31:48;2.90;;;2.70;;
8171;SDS011;4127;47.908;10.850;2022-08-23T18:34:15;2.57;;;2.37;;
8171;SDS011;4127;47.908;10.850;2022-08-23T18:36:43;3.17;;;2.60;;
8171;SDS011;4127;47.908;10.850;2022-08-23T18:39:10;2.57;;;2.37;;
8171;SDS011;4127;47.908;10.850;2022-08-23T18:41:39;2.80;;;2.57;;
8171;SDS011;4127;47.908;10.850;2022-08-23T18:44:06;3.30;;;3.00;;
8171;SDS011;4127;47.908;10.850;2022-08-23T18:46:34;2.73;;;2.53;;
8171;SDS011;4127;47.908;10.850;2022-08-23T18:49:02;4.13;;;2.70;;
8171;SDS011;4127;47.908;10.850;2022-08-23T18:51:30;2.60;;;2.30;;
8171;SDS011;4127;47.908;10.850;2022-08-23T18:53:58;7.97;;;4.67;;
8171;SDS011;4127;47.908;10.850;2022-08-23T18:56:25;7.40;;;6.70;;
8171;SDS011;4127;47.908;10.850;2022-08-23T18:58:52;6.47;;;5.33;;
8171;SDS011;4127;47.908;10.850;2022-08-23T19:01:23;4.10;;;3.63;;
8171;SDS011;4127;47.908;10.850;2022-08-23T19:03:59;3.67;;;3.37;;
8171;SDS011;4127;47.908;10.850;2022-08-23T19:06:27;3.00;;;2.80;;
8171;SDS011;4127;47.908;10.850;2022-08-23T19:08:55;3.00;;;2.80;;
8171;SDS011;4127;47.908;10.850;2022-08-23T19:11:22;4.03;;;2.70;;
8171;SDS011;4127;47.908;10.850;2022-08-23T19:13:49;2.70;;;2.50;;
8171;SDS011;4127;47.908;10.850;2022-08-23T19:16:17;4.80;;;2.90;;
8171;SDS011;4127;47.908;10.850;2022-08-23T19:18:47;3.03;;;2.83;;
8171;SDS011;4127;47.908;10.850;2022-08-23T19:21:15;3.00;;;2.80;;
8171;SDS011;4127;47.908;10.850;2022-08-23T19:23:46;3.20;;;2.90;;
8171;SDS011;4127;47.908;10.850;2022-08-23T19:26:14;3.10;;;2.63;;
8171;SDS011;4127;47.908;10.850;2022-08-23T19:28:43;2.90;;;2.70;;
8171;SDS011;4127;47.908;10.850;2022-08-23T19:31:09;3.33;;;3.03;;
8171;SDS011;4127;47.908;10.850;2022-08-23T19:33:37;3.40;;;3.10;;
8171;SDS011;4127;47.908;10.850;2022-08-23T19:36:03;3.10;;;2.77;;
8171;SDS011;4127;47.908;10.850;2022-08-23T19:38:31;3.13;;;2.60;;
8171;SDS011;4127;47.908;10.850;2022-08-23T19:40:58;3.40;;;2.63;;
8171;SDS011;4127;47.908;10.850;2022-08-23T19:43:27;3.60;;;3.17;;
8171;SDS011;4127;47.908;10.850;2022-08-23T19:45:56;3.03;;;2.83;;
8171;SDS011;4127;47.908;10.850;2022-08-23T19:48:23;3.07;;;2.87;;
8171;SDS011;4127;47.908;10.850;2022-08-23T19:50:50;3.30;;;3.00;;
8171;SDS011;4127;47.908;10.850;2022-08-23T19:53:17;3.50;;;3.03;;
8171;SDS011;4127;47.908;10.850;2022-08-23T19:55:44;3.40;;;3.10;;
8171;SDS011;4127;47.908;10.850;2022-08-23T19:58:12;3.73;;;3.43;;
8171;SDS011;4127;47.908;10.850;2022-08-23T20:00:40;5.40;;;3.17;;
8171;SDS011;4127;47.908;10.850;2022-08-23T20:03:08;3.37;;;3.17;;
8171;SDS011;4127;47.908;10.850;2022-08-23T20:05:34;4.27;;;3.33;;
8171;SDS011;4127;47.908;10.850;2022-08-23T20:08:01;5.23;;;3.20;;
8171;SDS011;4127;47.908;10.850;2022-08-23T20:10:28;3.30;;;2.93;;
8171;SDS011;4127;47.908;10.850;2022-08-23T20:12:55;3.00;;;2.80;;
8171;SDS011;4127;47.908;10.850;2022-08-23T20:15:22;3.27;;;2.70;;
8171;SDS011;4127;47.908;10.850;2022-08-23T20:17:49;3.53;;;3.23;;
8171;SDS011;4127;47.908;10.850;2022-08-23T20:20:16;3.10;;;2.80;;
8171;SDS011;4127;47.908;10.850;2022-08-23T20:22:42;3.40;;;3.10;;
8171;SDS011;4127;47.908;10.850;2022-08-23T20:25:28;3.90;;;2.93;;
8171;SDS011;4127;47.908;10.850;2022-08-23T20:27:55;3.37;;;3.07;;
8171;SDS011;4127;47.908;10.850;2022-08-23T20:30:23;3.07;;;2.87;;
8171;SDS011;4127;47.908;10.850;2022-08-23T20:32:49;3.40;;;3.10;;
8171;SDS011;4127;47.908;10.850;2022-08-23T20:35:16;3.30;;;3.00;;
8171;SDS011;4127;47.908;10.850;2022-08-23T20:37:43;3.13;;;2.87;;
8171;SDS011;4127;47.908;10.850;2022-08-23T20:40:10;2.93;;;2.73;;
8171;SDS011;4127;47.908;10.850;2022-08-23T20:42:37;2.93;;;2.73;;
8171;SDS011;4127;47.908;10.850;2022-08-23T20:45:04;3.23;;;2.93;;
8171;SDS011;4127;47.908;10.850;2022-08-23T20:47:31;3.60;;;3.30;;
8171;SDS011;4127;47.908;10.850;2022-08-23T20:50:00;3.13;;;2.93;;
8171;SDS011;4127;47.908;10.850;2022-08-23T20:52:27;3.10;;;2.80;;
8171;SDS011;4127;47.908;10.850;2022-08-23T20:54:59;3.57;;;3.20;;
8171;SDS011;4127;47.908;10.850;2022-08-23T20:57:26;3.80;;;3.10;;
8171;SDS011;4127;47.908;10.850;2022-08-23T21:00:09;3.60;;;2.70;;
8171;SDS011;4127;47.908;10.850;2022-08-23T21:02:36;3.40;;;3.13;;
8171;SDS011;4127;47.908;10.850;2022-08-23T21:05:04;3.03;;;2.83;;
8171;SDS011;4127;47.908;10.850;2022-08-23T21:07:31;3.30;;;3.00;;
8171;SDS011;4127;47.908;10.850;2022-08-23T21:09:58;3.40;;;3.10;;
8171;SDS011;4127;47.908;10.850;2022-08-23T21:12:25;3.10;;;2.90;;
8171;SDS011;4127;47.908;10.850;2022-08-23T21:14:52;3.30;;;3.10;;
8171;SDS011;4127;47.908;10.850;2022-08-23T21:17:19;3.13;;;2.90;;
8171;SDS011;4127;47.908;10.850;2022-08-23T21:19:45;3.33;;;3.07;;
8171;SDS011;4127;47.908;10.850;2022-08-23T21:22:12;2.80;;;2.57;;
8171;SDS011;4127;47.908;10.850;2022-08-23T21:24:39;5.10;;;3.00;;
8171;SDS011;4127;47.908;10.850;2022-08-23T21:27:07;3.10;;;2.90;;
8171;SDS011;4127;47.908;10.850;2022-08-23T21:29:35;3.30;;;3.03;;
8171;SDS011;4127;47.908;10.850;2022-08-23T21:32:02;3.70;;;3.40;;
8171;SDS011;4127;47.908;10.850;2022-08-23T21:34:29;3.07;;;2.87;;
8171;SDS011;4127;47.908;10.850;2022-08-23T21:36:55;3.87;;;3.40;;
8171;SDS011;4127;47.908;10.850;2022-08-23T21:39:22;3.70;;;3.40;;
8171;SDS011;4127;47.908;10.850;2022-08-23T21:41:49;3.80;;;3.10;;
8171;SDS011;4127;47.908;10.850;2022-08-23T21:44:17;3.83;;;3.53;;
8171;SDS011;4127;47.908;10.850;2022-08-23T21:46:45;3.50;;;3.20;;
8171;SDS011;4127;47.908;10.850;2022-08-23T21:49:13;3.47;;;3.27;;
8171;SDS011;4127;47.908;10.850;2022-08-23T21:51:41;3.60;;;3.00;;
8171;SDS011;4127;47.908;10.850;2022-08-23T21:54:10;3.27;;;3.00;;
8171;SDS011;4127;47.908;10.850;2022-08-23T21:56:38;3.50;;;3.20;;
8171;SDS011;4127;47.908;10.850;2022-08-23T21:59:06;4.30;;;3.90;;
8171;SDS011;4127;47.908;10.850;2022-08-23T22:01:34;3.00;;;2.80;;
8171;SDS011;4127;47.908;10.850;2022-08-23T22:04:02;3.30;;;3.00;;
8171;SDS011;4127;47.908;10.850;2022-08-23T22:06:32;3.40;;;3.10;;
8171;SDS011;4127;47.908;10.850;2022-08-23T22:09:00;3.33;;;3.03;;
8171;SDS011;4127;47.908;10.850;2022-08-23T22:11:28;3.47;;;3.17;;
8171;SDS011;4127;47.908;10.850;2022-08-23T22:13:55;3.37;;;3.00;;
8171;SDS011;4127;47.908;10.850;2022-08-23T22:16:22;4.70;;;2.93;;
8171;SDS011;4127;47.908;10.850;2022-08-23T22:18:50;3.27;;;3.07;;
8171;SDS011;4127;47.908;10.850;2022-08-23T22:21:16;3.57;;;3.27;;
8171;SDS011;4127;47.908;10.850;2022-08-23T22:23:43;3.57;;;3.30;;
8171;SDS011;4127;47.908;10.850;2022-08-23T22:26:10;3.20;;;3.00;;
8171;SDS011;4127;47.908;10.850;2022-08-23T22:28:39;3.30;;;3.00;;
8171;SDS011;4127;47.908;10.850;2022-08-23T22:31:10;3.60;;;3.07;;
8171;SDS011;4127;47.908;10.850;2022-08-23T22:33:39;3.37;;;3.17;;
8171;SDS011;4127;47.908;10.850;2022-08-23T22:36:09;3.80;;;3.30;;
8171;SDS011;4127;47.908;10.850;2022-08-23T22:38:38;3.33;;;3.03;;
8171;SDS011;4127;47.908;10.850;2022-08-23T22:41:05;3.43;;;3.13;;
8171;SDS011;4127;47.908;10.850;2022-08-23T22:43:32;3.53;;;3.23;;
8171;SDS011;4127;47.908;10.850;2022-08-23T22:45:59;4.27;;;3.87;;
8171;SDS011;4127;47.908;10.850;2022-08-23T22:48:29;3.90;;;3.20;;
8171;SDS011;4127;47.908;10.850;2022-08-23T22:51:14;4.07;;;3.67;;
8171;SDS011;4127;47.908;10.850;2022-08-23T22:53:43;4.13;;;3.67;;
8171;SDS011;4127;47.908;10.850;2022-08-23T22:56:14;3.47;;;3.17;;
8171;SDS011;4127;47.908;10.850;2022-08-23T22:58:42;3.93;;;3.30;;
8171;SDS011;4127;47.908;10.850;2022-08-23T23:01:31;3.23;;;3.00;;
8171;SDS011;4127;47.908;10.850;2022-08-23T23:04:01;3.80;;;3.50;;
8171;SDS011;4127;47.908;10.850;2022-08-23T23:06:33;4.23;;;3.70;;
8171;SDS011;4127;47.908;10.850;2022-08-23T23:09:00;4.70;;;3.53;;
8171;SDS011;4127;47.908;10.850;2022-08-23T23:11:28;5.27;;;3.60;;
8171;SDS011;4127;47.908;10.850;2022-08-23T23:13:55;3.70;;;3.40;;
8171;SDS011;4127;47.908;10.850;2022-08-23T23:16:24;3.90;;;3.50;;
8171;SDS011;4127;47.908;10.850;2022-08-23T23:18:52;4.03;;;3.73;;
8171;SDS011;4127;47.908;10.850;2022-08-23T23:21:40;3.63;;;3.37;;
8171;SDS011;4127;47.908;10.850;2022-08-23T23:24:09;3.73;;;3.43;;
8171;SDS011;4127;47.908;10.850;2022-08-23T23:26:37;4.37;;;3.30;;
8171;SDS011;4127;47.908;10.850;2022-08-23T23:29:04;3.57;;;3.27;;
8171;SDS011;4127;47.908;10.850;2022-08-23T23:31:31;3.63;;;3.33;;
8171;SDS011;4127;47.908;10.850;2022-08-23T23:33:58;3.87;;;3.57;;
8171;SDS011;4127;47.908;10.850;2022-08-23T23:36:25;3.90;;;3.60;;
8171;SDS011;4127;47.908;10.850;2022-08-23T23:38:51;4.27;;;3.80;;
8171;SDS011;4127;47.908;10.850;2022-08-23T23:41:19;3.43;;;3.23;;
8171;SDS011;4127;47.908;10.850;2022-08-23T23:43:46;3.50;;;3.20;;
8171;SDS011;4127;47.908;10.850;2022-08-23T23:46:14;3.63;;;3.00;;
8171;SDS011;4127;47.908;10.850;2022-08-23T23:48:44;3.53;;;3.23;;
8171;SDS011;4127;47.908;10.850;2022-08-23T23:51:13;3.73;;;3.43;;
8171;SDS011;4127;47.908;10.850;2022-08-23T23:53:42;4.40;;;3.73;;
8171;SDS011;4127;47.908;10.850;2022-08-23T23:56:10;3.67;;;3.40;;
8171;SDS011;4127;47.908;10.850;2022-08-23T23:58:39;3.50;;;3.20;;
